Hlavní strana
METAR-TAF:

METAR-TAF

Letiště :

Ouagadougou, Burkina Faso

zeměpisná šířka: 12-21N, zeměpisná délka: 001-31W, výška: 316 m

Aktuální stav počasí

Zpráva byla vytvořena před 1 hodinou a 2 minutami, v 14:00 UTC
Severoseverozápadní vítr 5 kt, proměnlivý mezi západním a severoseverovýchodním
Teplota 39°C
Vlhkost vzduchu 15%
Tlak 1007 hPa
Viditelnost: 8000 m

METAR: DFFD 191400Z 34005KT 280V030 8000 NSC 39/08 Q1007 NOSIG

Čas: 15:02 (15:02 UTC)

Předpověď počasí

Zpráva byla vytvořena před 4 hodinami a 2 minutami, v 11:00 UTC
Předpověď platná od 19 v 12 UTC do 20 v 18 UTC
vítr z různých směrů 6 kt
Viditelnost: 6000 m
Dočasný
od 19 v 16 UTC do 19 v 21 UTC
Viditelnost: 4000 m
rozsáhlý prach
Dočasný
od 20 v 06 UTC do 20 v 10 UTC
Viditelnost: 4000 m
rozsáhlý prach

TAF: DFFD 191100Z 1912/2018 VRB06KT 6000 NSC TEMPO 1916/1921 4000 DU TEMPO 2006/2010 4000 DU

Stav a předpovědi počasí z více než 4 000 letišť (zprávy METAR a TAF).

Červené a žluté tečky na mapě představují dostupné meteorologické stanice.

Když kurzor umístíte na tečku, zobrazí se název stanice.

Pak kliknutím zobrazíte stav a předpověď počasí.

Chcete-li změnit mapu, kliknutím na zelené tlačítko se znaménkem +mapu přiblížíte, kliknutím na zelené tlačítko se znaménkem – mapu oddálíte a kliknutím na zelené šipky přejdete na sousední mapy.


METAR-TAF: